createdAt,value
2023-03-06T00:00:23.399Z,21.23
2023-03-06T00:01:01.271Z,20.33
2023-03-06T00:01:33.101Z,21.47
2023-03-06T00:02:04.908Z,22.67
2023-03-06T00:02:36.658Z,22.17
2023-03-06T00:03:08.607Z,22.43
2023-03-06T00:03:40.368Z,21.90
2023-03-06T00:04:13.077Z,22.43
2023-03-06T00:04:44.790Z,25.23
2023-03-06T00:05:17.249Z,25.80
2023-03-06T00:05:49.316Z,24.13
2023-03-06T00:06:21.654Z,24.77
2023-03-06T00:06:54.261Z,24.57
2023-03-06T00:07:25.996Z,26.20
2023-03-06T00:07:57.831Z,26.97
2023-03-06T00:08:30.186Z,26.30
2023-03-06T00:09:01.970Z,26.23
2023-03-06T00:09:33.702Z,24.90
2023-03-06T00:10:05.763Z,24.97
2023-03-06T00:10:38.589Z,24.43
2023-03-06T00:11:14.833Z,24.97
2023-03-06T00:11:46.556Z,25.37
2023-03-06T00:12:18.330Z,24.33
2023-03-06T00:12:58.365Z,25.77
2023-03-06T00:13:31.264Z,24.47
2023-03-06T00:14:03.135Z,24.07
2023-03-06T00:14:34.878Z,23.50
2023-03-06T00:15:07.468Z,24.17
2023-03-06T00:15:39.493Z,23.90
2023-03-06T00:16:11.792Z,24.23
2023-03-06T00:16:43.564Z,23.27
2023-03-06T00:17:15.293Z,23.70
2023-03-06T00:17:47.457Z,24.60
2023-03-06T00:18:19.487Z,24.40
2023-03-06T00:18:52.205Z,24.10
2023-03-06T00:19:24.530Z,22.67
2023-03-06T00:19:56.364Z,23.90
2023-03-06T00:20:28.162Z,26.57
2023-03-06T00:21:00.293Z,27.73
2023-03-06T00:21:32.079Z,27.57
2023-03-06T00:22:03.942Z,27.50
2023-03-06T00:22:35.672Z,28.73
2023-03-06T00:23:08.404Z,26.87
2023-03-06T00:23:41.428Z,26.63
2023-03-06T00:24:13.379Z,27.10
2023-03-06T00:24:45.180Z,26.27
2023-03-06T00:25:20.322Z,26.57
2023-03-06T00:25:52.141Z,25.63
2023-03-06T00:26:23.954Z,25.47
2023-03-06T00:26:55.754Z,25.33
2023-03-06T00:27:27.595Z,23.87
2023-03-06T00:27:59.302Z,24.07
2023-03-06T00:28:31.640Z,25.20
2023-03-06T00:29:03.732Z,22.90
2023-03-06T00:29:35.664Z,23.07
2023-03-06T00:30:15.568Z,24.50
2023-03-06T00:30:47.586Z,23.57
2023-03-06T00:31:19.404Z,25.00
2023-03-06T00:31:51.220Z,25.87
2023-03-06T00:32:24.038Z,25.70
2023-03-06T00:32:56.572Z,22.57
2023-03-06T00:33:28.345Z,22.80
2023-03-06T00:34:00.346Z,24.23
2023-03-06T00:34:32.193Z,26.30
2023-03-06T00:35:04.276Z,24.97
2023-03-06T00:35:39.168Z,23.93
2023-03-06T00:36:11.046Z,24.03
2023-03-06T00:36:42.903Z,23.90
2023-03-06T00:37:14.662Z,24.03
2023-03-06T00:37:46.448Z,23.50
2023-03-06T00:38:18.198Z,23.33
2023-03-06T00:38:49.944Z,22.73
2023-03-06T00:39:22.601Z,21.80
2023-03-06T00:39:54.379Z,22.20
2023-03-06T00:40:26.822Z,22.43
2023-03-06T00:40:58.647Z,21.10
2023-03-06T00:41:30.442Z,21.17
2023-03-06T00:42:02.204Z,21.40
2023-03-06T00:42:34.005Z,20.87
2023-03-06T00:43:05.931Z,19.90
2023-03-06T00:43:38.077Z,19.73
2023-03-06T00:44:09.836Z,20.70
2023-03-06T00:44:41.757Z,21.37
2023-03-06T00:45:14.656Z,21.20
2023-03-06T00:45:46.443Z,20.30
2023-03-06T00:46:18.363Z,18.90
2023-03-06T00:46:50.174Z,18.30
2023-03-06T00:47:21.962Z,18.23
2023-03-06T00:47:53.763Z,18.60
2023-03-06T00:48:25.515Z,18.40
2023-03-06T00:48:57.268Z,19.13
2023-03-06T00:49:29.039Z,18.80
2023-03-06T00:50:01.073Z,19.07
2023-03-06T00:50:32.899Z,19.43
2023-03-06T00:51:04.925Z,17.47
2023-03-06T00:51:36.640Z,17.77
2023-03-06T00:52:08.416Z,17.57
2023-03-06T00:52:42.123Z,17.37
2023-03-06T00:53:13.895Z,17.37
2023-03-06T00:53:45.634Z,18.00
2023-03-06T00:54:17.416Z,17.57
2023-03-06T00:54:49.365Z,17.87
2023-03-06T00:55:21.289Z,18.33
2023-03-06T00:55:53.073Z,18.43
2023-03-06T00:56:25.315Z,18.33
2023-03-06T00:56:57.026Z,18.93
2023-03-06T00:57:28.851Z,22.67
2023-03-06T00:58:00.647Z,24.50
2023-03-06T00:58:32.409Z,24.37
2023-03-06T00:59:04.145Z,22.03
2023-03-06T00:59:36.462Z,23.93
2023-03-06T01:00:09.627Z,25.47
2023-03-06T01:00:41.405Z,25.10
2023-03-06T01:01:14.074Z,24.70
2023-03-06T01:01:45.863Z,24.57
2023-03-06T01:02:17.705Z,23.37
2023-03-06T01:02:49.619Z,24.70
2023-03-06T01:03:21.420Z,25.37
2023-03-06T01:03:53.178Z,24.57
2023-03-06T01:04:25.328Z,23.43
2023-03-06T01:04:57.597Z,23.00
2023-03-06T01:05:35.819Z,22.93
2023-03-06T01:06:07.789Z,21.60
2023-03-06T01:06:39.555Z,21.80
2023-03-06T01:07:11.386Z,22.77
2023-03-06T01:07:43.156Z,23.77
2023-03-06T01:08:14.911Z,23.20
2023-03-06T01:08:46.653Z,21.83
2023-03-06T01:09:18.448Z,21.20
2023-03-06T01:09:50.475Z,21.30
2023-03-06T01:10:22.372Z,20.83
2023-03-06T01:10:54.206Z,20.27
2023-03-06T01:11:26.215Z,20.87
2023-03-06T01:11:57.988Z,20.53
2023-03-06T01:12:29.896Z,21.93
2023-03-06T01:13:01.626Z,21.93
2023-03-06T01:13:33.375Z,21.73
2023-03-06T01:14:05.585Z,21.53
2023-03-06T01:14:37.296Z,22.23
2023-03-06T01:15:10.882Z,22.33
2023-03-06T01:15:42.790Z,21.97
2023-03-06T01:16:19.118Z,21.77
2023-03-06T01:16:50.942Z,22.40
2023-03-06T01:17:22.675Z,23.17
2023-03-06T01:17:55.267Z,21.27
2023-03-06T01:18:27.037Z,21.13
2023-03-06T01:18:59.263Z,22.40
2023-03-06T01:19:31.243Z,23.47
2023-03-06T01:20:03.161Z,23.03
2023-03-06T01:20:34.975Z,23.23
2023-03-06T01:21:07.342Z,22.57
2023-03-06T01:21:39.200Z,24.00
2023-03-06T01:22:10.966Z,23.27
2023-03-06T01:22:43.168Z,22.87
2023-03-06T01:23:14.994Z,22.80
2023-03-06T01:23:47.506Z,23.83
2023-03-06T01:24:19.255Z,23.40
2023-03-06T01:24:50.994Z,22.33
2023-03-06T01:25:24.371Z,23.33
2023-03-06T01:25:56.297Z,23.33
2023-03-06T01:26:28.096Z,23.30
2023-03-06T01:26:59.910Z,22.30
2023-03-06T01:27:31.657Z,22.17
2023-03-06T01:28:03.599Z,22.67
2023-03-06T01:28:37.543Z,22.67
2023-03-06T01:29:09.374Z,23.13
2023-03-06T01:29:41.124Z,23.53
2023-03-06T01:30:13.197Z,23.10
2023-03-06T01:30:44.936Z,22.53
2023-03-06T01:31:16.850Z,22.97
2023-03-06T01:31:48.802Z,22.73
2023-03-06T01:32:21.609Z,22.47
2023-03-06T01:32:53.452Z,22.60
2023-03-06T01:33:25.198Z,22.23
2023-03-06T01:33:56.971Z,21.50
2023-03-06T01:34:28.800Z,22.33
2023-03-06T01:35:00.573Z,21.10
2023-03-06T01:35:32.352Z,21.23
2023-03-06T01:36:06.612Z,20.47
2023-03-06T01:36:38.427Z,20.70
2023-03-06T01:37:10.297Z,20.33
2023-03-06T01:37:42.507Z,20.70
2023-03-06T01:38:14.627Z,20.20
2023-03-06T01:38:46.470Z,20.37
2023-03-06T01:39:18.279Z,20.30
2023-03-06T01:39:50.354Z,20.67
2023-03-06T01:40:22.274Z,22.67
2023-03-06T01:40:54.074Z,20.40
2023-03-06T01:41:25.920Z,20.37
2023-03-06T01:41:57.811Z,20.40
2023-03-06T01:42:31.941Z,19.63
2023-03-06T01:43:28.564Z,20.23
2023-03-06T01:44:00.388Z,18.60
2023-03-06T01:44:32.594Z,19.77
2023-03-06T01:45:27.219Z,20.37
2023-03-06T01:46:25.717Z,19.50
2023-03-06T01:46:57.542Z,19.73
2023-03-06T01:47:29.400Z,18.93
2023-03-06T01:48:01.176Z,19.03
2023-03-06T01:48:32.988Z,19.67
2023-03-06T01:49:16.645Z,19.97
2023-03-06T01:49:48.859Z,19.77
2023-03-06T01:50:20.838Z,19.30
2023-03-06T01:50:54.284Z,20.17
2023-03-06T01:51:35.725Z,19.97
2023-03-06T01:52:12.082Z,20.57
2023-03-06T01:52:56.261Z,20.47
2023-03-06T01:53:28.559Z,20.93
2023-03-06T01:54:05.349Z,21.93
2023-03-06T01:54:42.344Z,20.60
2023-03-06T01:55:28.126Z,21.70
2023-03-06T01:55:59.899Z,20.33
2023-03-06T01:56:32.176Z,21.00
2023-03-06T01:57:13.589Z,21.63
2023-03-06T01:57:51.287Z,21.80
2023-03-06T01:58:23.162Z,20.57
2023-03-06T01:58:55.122Z,21.57
2023-03-06T01:59:29.411Z,21.23
2023-03-06T02:00:12.604Z,20.60
2023-03-06T02:00:44.591Z,20.73
2023-03-06T02:01:18.963Z,20.23
2023-03-06T02:01:51.544Z,20.33
2023-03-06T02:02:23.442Z,21.33
2023-03-06T02:03:04.527Z,20.17
2023-03-06T02:03:36.603Z,20.43
2023-03-06T02:04:09.740Z,20.70
2023-03-06T02:04:42.643Z,20.63
2023-03-06T02:05:14.588Z,21.90
2023-03-06T02:05:46.665Z,20.43
2023-03-06T02:06:21.791Z,20.43
2023-03-06T02:06:54.174Z,20.23
2023-03-06T02:07:26.320Z,19.70
2023-03-06T02:07:58.421Z,19.93
2023-03-06T02:08:31.609Z,21.43
2023-03-06T02:09:05.763Z,20.73
2023-03-06T02:09:38.916Z,20.23
2023-03-06T02:10:12.267Z,20.53
2023-03-06T02:10:56.797Z,20.50
2023-03-06T02:11:28.597Z,20.23
2023-03-06T02:12:07.880Z,20.50
2023-03-06T02:12:43.805Z,19.40
2023-03-06T02:13:15.597Z,20.30
2023-03-06T02:13:49.214Z,20.57
2023-03-06T02:14:21.378Z,20.93
2023-03-06T02:14:53.863Z,20.47
2023-03-06T02:15:29.191Z,20.50
2023-03-06T02:16:02.257Z,20.43
2023-03-06T02:16:34.292Z,20.37
2023-03-06T02:17:09.038Z,20.23
2023-03-06T02:17:43.867Z,20.53
2023-03-06T02:18:15.779Z,20.93
2023-03-06T02:18:49.490Z,20.43
2023-03-06T02:19:58.144Z,19.87
2023-03-06T02:20:39.656Z,20.17
2023-03-06T02:21:21.735Z,21.43
2023-03-06T02:21:53.489Z,21.00
2023-03-06T02:22:36.323Z,20.67
2023-03-06T02:23:25.272Z,21.23
2023-03-06T02:24:18.766Z,21.23
2023-03-06T02:25:03.438Z,20.80
2023-03-06T02:25:38.348Z,20.80
2023-03-06T02:26:12.178Z,19.73
2023-03-06T02:26:45.362Z,20.67
2023-03-06T02:27:19.032Z,21.10
2023-03-06T02:27:50.839Z,20.07
2023-03-06T02:28:24.825Z,20.50
2023-03-06T02:28:58.549Z,20.67
2023-03-06T02:29:30.610Z,19.57
2023-03-06T02:30:07.820Z,20.00
2023-03-06T02:30:41.449Z,21.13
2023-03-06T02:31:25.139Z,20.67
2023-03-06T02:31:57.586Z,20.63
2023-03-06T02:32:29.343Z,20.63
2023-03-06T02:33:01.604Z,20.40
2023-03-06T02:33:33.533Z,19.40
2023-03-06T02:34:27.138Z,20.57
2023-03-06T02:34:59.090Z,20.10
2023-03-06T02:35:34.759Z,21.03
2023-03-06T02:36:12.920Z,20.07
2023-03-06T02:36:51.880Z,19.47
2023-03-06T02:37:26.179Z,20.83
2023-03-06T02:38:02.746Z,21.40
2023-03-06T02:38:44.644Z,20.83
2023-03-06T02:39:21.804Z,21.20
2023-03-06T02:40:02.960Z,21.33
2023-03-06T02:40:35.449Z,20.30
2023-03-06T02:41:08.635Z,21.03
2023-03-06T02:41:41.007Z,21.23
2023-03-06T02:42:19.594Z,20.57
2023-03-06T02:42:58.143Z,20.27
2023-03-06T02:43:34.915Z,19.93
2023-03-06T02:44:06.661Z,20.63
2023-03-06T02:44:38.652Z,21.23
2023-03-06T02:45:13.478Z,20.67
2023-03-06T02:45:49.304Z,22.13
2023-03-06T02:46:21.134Z,23.00
2023-03-06T02:46:52.899Z,22.57
2023-03-06T02:47:25.550Z,21.73
2023-03-06T02:47:57.306Z,20.93
2023-03-06T02:48:29.146Z,21.17
2023-03-06T02:49:00.924Z,21.27
2023-03-06T02:49:32.703Z,22.17
2023-03-06T02:50:04.710Z,22.27
2023-03-06T02:50:36.511Z,22.30
2023-03-06T02:51:08.347Z,21.17
2023-03-06T02:51:40.080Z,22.80
2023-03-06T02:52:12.029Z,22.33
2023-03-06T02:52:43.796Z,21.77
2023-03-06T02:53:18.373Z,20.33
2023-03-06T02:53:50.388Z,21.63
2023-03-06T02:54:22.394Z,22.03
2023-03-06T02:54:54.188Z,22.33
2023-03-06T02:55:26.015Z,22.37
2023-03-06T02:55:57.904Z,22.10
2023-03-06T02:56:29.720Z,23.17
2023-03-06T02:57:01.460Z,23.10
2023-03-06T02:57:33.265Z,22.13
2023-03-06T02:58:05.590Z,22.33
2023-03-06T02:58:37.473Z,23.13
2023-03-06T02:59:09.235Z,22.30
2023-03-06T02:59:41.068Z,22.53
2023-03-06T03:00:13.264Z,23.13
2023-03-06T03:00:45.110Z,23.23
2023-03-06T03:01:16.876Z,23.27
2023-03-06T03:01:48.770Z,22.77
2023-03-06T03:02:20.665Z,22.60
2023-03-06T03:02:53.128Z,22.13
2023-03-06T03:03:24.844Z,23.63
2023-03-06T03:03:56.595Z,23.40
2023-03-06T03:04:28.394Z,23.07
2023-03-06T03:05:00.193Z,23.27
2023-03-06T03:05:32.504Z,23.30
2023-03-06T03:06:06.031Z,22.47
2023-03-06T03:06:37.844Z,22.63
2023-03-06T03:07:09.627Z,23.37
2023-03-06T03:07:41.438Z,23.40
2023-03-06T03:08:13.492Z,24.13
2023-03-06T03:08:45.233Z,23.50
2023-03-06T03:09:17.154Z,23.13
2023-03-06T03:09:48.927Z,22.80
2023-03-06T03:10:21.020Z,23.77
2023-03-06T03:10:52.834Z,22.67
2023-03-06T03:11:24.598Z,22.00
2023-03-06T03:11:56.341Z,23.33
2023-03-06T03:12:28.829Z,23.67
2023-03-06T03:13:00.826Z,23.03
2023-03-06T03:13:32.967Z,23.47
2023-03-06T03:14:04.854Z,23.80
2023-03-06T03:14:36.701Z,23.40
2023-03-06T03:15:09.749Z,23.93
2023-03-06T03:15:41.672Z,22.57
2023-03-06T03:16:15.631Z,23.63
2023-03-06T03:16:47.855Z,23.67
2023-03-06T03:17:19.619Z,22.77
2023-03-06T03:17:51.603Z,22.53
2023-03-06T03:18:23.435Z,22.83
2023-03-06T03:18:55.237Z,23.33
2023-03-06T03:19:26.974Z,23.73
2023-03-06T03:19:58.777Z,23.53
2023-03-06T03:20:30.525Z,23.27
2023-03-06T03:21:03.129Z,23.13
2023-03-06T03:21:34.879Z,22.30
2023-03-06T03:22:07.303Z,23.57
2023-03-06T03:22:39.364Z,23.90
2023-03-06T03:23:11.162Z,22.80
2023-03-06T03:23:43.217Z,23.37
2023-03-06T03:24:16.766Z,23.77
2023-03-06T03:24:48.662Z,23.40
2023-03-06T03:25:23.950Z,23.37
2023-03-06T03:25:55.752Z,22.70
2023-03-06T03:26:27.650Z,23.87
2023-03-06T03:26:59.530Z,22.90
2023-03-06T03:27:31.324Z,21.73
2023-03-06T03:28:03.175Z,23.40
2023-03-06T03:28:35.338Z,22.00
2023-03-06T03:29:07.189Z,22.40
2023-03-06T03:29:40.168Z,22.63
2023-03-06T03:30:12.636Z,23.43
2023-03-06T03:30:45.826Z,23.20
2023-03-06T03:31:17.845Z,23.73
2023-03-06T03:31:49.706Z,23.23
2023-03-06T03:32:21.479Z,22.30
2023-03-06T03:32:53.281Z,22.57
2023-03-06T03:33:25.087Z,22.50
2023-03-06T03:33:56.885Z,21.70
2023-03-06T03:34:28.663Z,21.97
2023-03-06T03:35:00.405Z,22.17
2023-03-06T03:35:32.324Z,22.80
2023-03-06T03:36:06.821Z,22.47
2023-03-06T03:36:38.736Z,21.57
2023-03-06T03:37:10.879Z,21.90
2023-03-06T03:37:42.680Z,22.37
2023-03-06T03:38:14.469Z,21.63
2023-03-06T03:38:46.280Z,21.17
2023-03-06T03:39:18.185Z,21.47
2023-03-06T03:39:50.007Z,22.50
2023-03-06T03:40:21.707Z,21.47
2023-03-06T03:40:53.566Z,22.33
2023-03-06T03:41:25.399Z,22.30
2023-03-06T03:41:57.238Z,21.00
2023-03-06T03:42:29.037Z,21.70
2023-03-06T03:43:00.807Z,21.10
2023-03-06T03:43:32.677Z,20.27
2023-03-06T03:44:04.492Z,21.13
2023-03-06T03:44:36.276Z,20.97
2023-03-06T03:45:08.603Z,20.00
2023-03-06T03:45:40.496Z,21.30
2023-03-06T03:46:12.382Z,20.67
2023-03-06T03:46:44.400Z,20.53
2023-03-06T03:47:16.219Z,20.93
2023-03-06T03:47:48.044Z,21.73
2023-03-06T03:48:20.593Z,21.73
2023-03-06T03:48:52.331Z,22.47
2023-03-06T03:49:24.486Z,21.40
2023-03-06T03:49:56.285Z,21.63
2023-03-06T03:50:28.024Z,21.90
2023-03-06T03:51:09.752Z,22.00
2023-03-06T03:51:41.648Z,21.90
2023-03-06T03:52:13.442Z,22.53
2023-03-06T03:52:45.237Z,22.43
2023-03-06T03:53:17.134Z,22.90
2023-03-06T03:53:49.440Z,23.63
2023-03-06T03:54:21.385Z,22.20
2023-03-06T03:54:53.967Z,21.93
2023-03-06T03:55:26.140Z,22.33
2023-03-06T03:55:57.919Z,23.40
2023-03-06T03:56:29.647Z,23.30
2023-03-06T03:57:01.390Z,22.13
2023-03-06T03:57:33.194Z,22.50
2023-03-06T03:58:05.758Z,23.07
2023-03-06T03:58:37.739Z,23.60
2023-03-06T03:59:09.694Z,23.97
2023-03-06T03:59:41.440Z,23.40
2023-03-06T04:00:16.686Z,22.63
2023-03-06T04:00:48.472Z,23.80
2023-03-06T04:01:20.276Z,23.50
2023-03-06T04:01:52.619Z,21.63
2023-03-06T04:02:25.619Z,21.23
2023-03-06T04:02:57.515Z,23.43
2023-03-06T04:03:29.396Z,22.63
2023-03-06T04:04:01.221Z,25.37
2023-03-06T04:04:33.111Z,25.50
2023-03-06T04:05:05.289Z,64.17
2023-03-06T04:05:37.142Z,75.97
2023-03-06T04:06:09.109Z,30.50
2023-03-06T04:06:40.955Z,32.07
2023-03-06T04:07:12.865Z,29.93
2023-03-06T04:07:44.950Z,30.90
2023-03-06T04:08:16.699Z,27.50
2023-03-06T04:08:48.446Z,26.97
2023-03-06T04:09:20.220Z,28.87
2023-03-06T04:09:52.015Z,29.27
2023-03-06T04:10:23.754Z,27.87
2023-03-06T04:10:55.541Z,24.83
2023-03-06T04:11:27.393Z,23.37
2023-03-06T04:11:59.100Z,25.33
2023-03-06T04:12:30.985Z,24.27
2023-03-06T04:13:02.837Z,22.40
2023-03-06T04:13:34.686Z,22.87
2023-03-06T04:14:08.361Z,22.50
2023-03-06T04:14:40.109Z,21.77
2023-03-06T04:15:11.931Z,21.70
2023-03-06T04:15:43.862Z,22.27
2023-03-06T04:16:15.812Z,21.90
2023-03-06T04:16:47.660Z,22.17
2023-03-06T04:17:19.481Z,23.10
2023-03-06T04:17:51.548Z,23.67
2023-03-06T04:18:24.129Z,24.57
2023-03-06T04:18:55.907Z,23.50
2023-03-06T04:19:27.815Z,24.67
2023-03-06T04:20:00.706Z,25.03
2023-03-06T04:20:32.522Z,23.57
2023-03-06T04:21:04.476Z,22.33
2023-03-06T04:21:36.358Z,25.10
2023-03-06T04:22:08.117Z,27.23
2023-03-06T04:22:39.969Z,26.50
2023-03-06T04:23:12.280Z,24.57
2023-03-06T04:23:44.068Z,24.57
2023-03-06T04:24:15.877Z,24.50
2023-03-06T04:24:49.993Z,23.37
2023-03-06T04:25:21.776Z,23.53
2023-03-06T04:25:54.169Z,22.20
2023-03-06T04:26:26.047Z,21.17
2023-03-06T04:26:57.829Z,21.80
2023-03-06T04:27:29.542Z,20.97
2023-03-06T04:28:01.366Z,22.47
2023-03-06T04:28:33.300Z,24.27
2023-03-06T04:29:05.376Z,22.67
2023-03-06T04:29:37.151Z,22.33
2023-03-06T04:30:09.617Z,24.30
2023-03-06T04:30:44.479Z,25.70
2023-03-06T04:31:16.301Z,25.23
2023-03-06T04:31:48.168Z,23.90
2023-03-06T04:32:21.544Z,43.80
2023-03-06T04:32:53.503Z,25.10
2023-03-06T04:33:25.305Z,42.87
2023-03-06T04:33:57.294Z,38.77
2023-03-06T04:34:29.065Z,30.73
2023-03-06T04:35:01.109Z,28.30
2023-03-06T04:35:33.063Z,24.70
2023-03-06T04:36:05.513Z,22.63
2023-03-06T04:36:37.353Z,22.03
2023-03-06T04:37:22.841Z,20.20
2023-03-06T04:37:55.015Z,24.43
2023-03-06T04:38:26.859Z,22.90
2023-03-06T04:38:59.216Z,21.30
2023-03-06T04:39:31.127Z,20.93
2023-03-06T04:40:03.040Z,20.30
2023-03-06T04:40:37.559Z,20.93
2023-03-06T04:41:09.452Z,21.93
2023-03-06T04:41:42.609Z,19.63
2023-03-06T04:42:15.300Z,19.73
2023-03-06T04:42:47.384Z,19.80
2023-03-06T04:43:19.238Z,20.87
2023-03-06T04:43:52.150Z,23.40
2023-03-06T04:44:24.015Z,22.63
2023-03-06T04:44:55.754Z,20.30
2023-03-06T04:45:30.227Z,19.80
2023-03-06T04:46:02.104Z,20.23
2023-03-06T04:46:35.092Z,24.00
2023-03-06T04:47:07.251Z,23.00
2023-03-06T04:47:39.360Z,52.30
2023-03-06T04:48:15.739Z,32.60
2023-03-06T04:48:47.780Z,22.00
2023-03-06T04:49:19.584Z,21.53
2023-03-06T04:49:51.389Z,28.53
2023-03-06T04:50:25.056Z,48.17
2023-03-06T04:50:56.800Z,42.77
2023-03-06T04:51:28.586Z,37.30
2023-03-06T04:52:00.374Z,36.40
2023-03-06T04:52:32.164Z,37.37
2023-03-06T04:53:04.866Z,26.57
2023-03-06T04:53:36.607Z,25.57
2023-03-06T04:54:08.465Z,34.10
2023-03-06T04:54:40.221Z,38.33
2023-03-06T04:55:14.660Z,30.83
2023-03-06T04:55:46.425Z,29.00
2023-03-06T04:56:18.674Z,26.47
2023-03-06T04:56:50.546Z,26.57
2023-03-06T04:57:22.411Z,24.93
2023-03-06T04:57:54.293Z,24.23
2023-03-06T04:58:26.505Z,24.90
2023-03-06T04:58:58.608Z,25.47
2023-03-06T04:59:30.507Z,26.17
2023-03-06T05:00:08.581Z,28.13
2023-03-06T05:00:40.530Z,29.47
2023-03-06T05:01:12.796Z,24.40
2023-03-06T05:01:44.647Z,21.40
2023-03-06T05:02:17.855Z,20.60
2023-03-06T05:02:50.781Z,20.40
2023-03-06T05:03:22.698Z,20.33
2023-03-06T05:03:54.532Z,19.57
2023-03-06T05:04:26.310Z,20.13
2023-03-06T05:04:58.081Z,20.03
2023-03-06T05:05:30.605Z,21.63
2023-03-06T05:06:02.669Z,21.50
2023-03-06T05:06:34.550Z,21.60
2023-03-06T05:07:06.410Z,19.73
2023-03-06T05:07:39.098Z,20.50
2023-03-06T05:08:16.082Z,20.07
2023-03-06T05:08:47.875Z,20.10
2023-03-06T05:09:19.614Z,20.37
2023-03-06T05:09:51.466Z,20.13
2023-03-06T05:10:23.442Z,20.37
2023-03-06T05:11:01.703Z,20.53
2023-03-06T05:11:33.492Z,19.63
2023-03-06T05:12:05.421Z,20.60
2023-03-06T05:12:37.906Z,20.00
2023-03-06T05:13:10.380Z,20.77
2023-03-06T05:13:42.953Z,20.77
2023-03-06T05:14:14.830Z,19.90
2023-03-06T05:14:48.020Z,20.03
2023-03-06T05:15:19.996Z,20.37
2023-03-06T05:15:51.860Z,20.17
2023-03-06T05:16:26.112Z,20.60
2023-03-06T05:16:58.177Z,20.67
2023-03-06T05:17:30.048Z,20.27
2023-03-06T05:18:01.797Z,20.60
2023-03-06T05:18:34.485Z,20.33
2023-03-06T05:19:06.264Z,20.50
2023-03-06T05:19:38.076Z,19.67
2023-03-06T05:20:12.051Z,20.30
2023-03-06T05:20:43.877Z,20.90
2023-03-06T05:21:15.653Z,21.47
2023-03-06T05:21:47.412Z,21.23
2023-03-06T05:22:19.264Z,22.00
2023-03-06T05:22:51.518Z,21.43
2023-03-06T05:23:23.352Z,20.73
2023-03-06T05:23:55.180Z,21.23
2023-03-06T05:24:26.991Z,21.43
2023-03-06T05:24:58.882Z,21.17
2023-03-06T05:25:30.728Z,21.67
2023-03-06T05:26:08.285Z,21.63
2023-03-06T05:26:40.045Z,19.97
2023-03-06T05:27:11.902Z,21.53
2023-03-06T05:27:43.869Z,24.27
2023-03-06T05:28:15.603Z,25.70
2023-03-06T05:28:47.342Z,25.43
2023-03-06T05:29:19.213Z,26.87
2023-03-06T05:29:50.998Z,26.40
2023-03-06T05:30:23.401Z,26.73
2023-03-06T05:30:55.100Z,26.97
2023-03-06T05:31:26.864Z,26.17
2023-03-06T05:31:59.028Z,23.53
2023-03-06T05:32:31.784Z,23.10
2023-03-06T05:33:04.276Z,22.13
2023-03-06T05:33:36.851Z,21.70
2023-03-06T05:34:15.489Z,20.47
2023-03-06T05:34:48.081Z,21.93
2023-03-06T05:35:23.001Z,22.50
2023-03-06T05:35:54.800Z,22.23
2023-03-06T05:36:26.678Z,23.53
2023-03-06T05:36:59.205Z,23.43
2023-03-06T05:37:31.223Z,24.33
2023-03-06T05:38:03.345Z,23.83
2023-03-06T05:38:35.071Z,24.23
2023-03-06T05:39:07.041Z,23.57
2023-03-06T05:39:38.822Z,24.50
2023-03-06T05:40:11.694Z,24.30
2023-03-06T05:40:44.871Z,24.53
2023-03-06T05:41:17.189Z,23.13
2023-03-06T05:41:48.971Z,23.50
2023-03-06T05:42:21.073Z,24.10
2023-03-06T05:42:52.878Z,23.77
2023-03-06T05:43:24.626Z,23.27
2023-03-06T05:43:57.024Z,24.20
2023-03-06T05:44:33.305Z,23.20
2023-03-06T05:45:05.742Z,23.70
2023-03-06T05:45:38.762Z,23.93
2023-03-06T05:46:11.333Z,22.80
2023-03-06T05:46:43.170Z,22.80
2023-03-06T05:47:15.172Z,24.60
2023-03-06T05:47:47.250Z,28.97
2023-03-06T05:48:19.089Z,28.20
2023-03-06T05:48:53.229Z,27.27
2023-03-06T05:49:25.370Z,46.43
2023-03-06T05:49:57.106Z,33.50
2023-03-06T05:50:28.892Z,24.50
2023-03-06T05:51:02.483Z,25.87
2023-03-06T05:51:34.242Z,23.77
2023-03-06T05:52:07.506Z,21.67
2023-03-06T05:52:40.238Z,22.40
2023-03-06T05:53:12.023Z,22.40
2023-03-06T05:53:43.874Z,22.60
2023-03-06T05:54:15.699Z,22.93
2023-03-06T05:54:51.114Z,22.70
2023-03-06T05:55:24.493Z,23.07
2023-03-06T05:56:02.305Z,22.67
2023-03-06T05:56:34.044Z,22.73
2023-03-06T05:57:06.047Z,23.27
2023-03-06T05:57:37.811Z,21.77
2023-03-06T05:58:09.553Z,21.87
2023-03-06T05:58:41.364Z,21.80
2023-03-06T05:59:13.513Z,22.50
2023-03-06T05:59:46.387Z,22.97
2023-03-06T06:00:19.887Z,23.10
2023-03-06T06:00:52.296Z,22.83
2023-03-06T06:01:25.507Z,23.33
2023-03-06T06:01:57.978Z,22.47
2023-03-06T06:02:29.975Z,23.10
2023-03-06T06:03:02.419Z,24.27
2023-03-06T06:03:34.296Z,25.80
2023-03-06T06:04:06.144Z,24.63
2023-03-06T06:04:38.057Z,22.67
2023-03-06T06:05:12.899Z,23.80
2023-03-06T06:05:45.034Z,23.47
2023-03-06T06:06:16.903Z,24.70
2023-03-06T06:06:54.282Z,25.03
2023-03-06T06:07:26.062Z,24.73
2023-03-06T06:07:57.870Z,25.57
2023-03-06T06:08:29.646Z,25.20
2023-03-06T06:09:01.431Z,25.43
2023-03-06T06:09:33.174Z,26.27
2023-03-06T06:10:07.051Z,25.33
2023-03-06T06:10:39.907Z,25.07
2023-03-06T06:11:12.954Z,24.73
2023-03-06T06:11:44.902Z,24.97
2023-03-06T06:12:16.690Z,24.87
2023-03-06T06:12:48.490Z,25.53
2023-03-06T06:13:20.263Z,24.90
2023-03-06T06:13:52.025Z,24.87
2023-03-06T06:14:24.646Z,23.77
2023-03-06T06:14:56.535Z,22.57
2023-03-06T06:15:29.028Z,21.83
2023-03-06T06:16:06.027Z,21.87
2023-03-06T06:16:37.841Z,23.07
2023-03-06T06:17:09.649Z,24.00
2023-03-06T06:17:41.630Z,24.77
2023-03-06T06:18:13.392Z,23.90
2023-03-06T06:18:46.709Z,23.73
2023-03-06T06:19:21.333Z,24.20
2023-03-06T06:19:53.986Z,24.07
2023-03-06T06:20:26.135Z,31.73
2023-03-06T06:20:57.876Z,30.73
2023-03-06T06:21:29.594Z,25.33
2023-03-06T06:22:04.101Z,23.23
2023-03-06T06:22:38.025Z,24.90
2023-03-06T06:23:12.723Z,26.60
2023-03-06T06:23:44.596Z,24.87
2023-03-06T06:24:19.334Z,25.17
2023-03-06T06:24:51.212Z,23.97
2023-03-06T06:25:22.957Z,23.90
2023-03-06T06:25:54.761Z,23.63
2023-03-06T06:26:26.542Z,23.57
2023-03-06T06:27:01.930Z,25.57
2023-03-06T06:27:35.171Z,25.63
2023-03-06T06:28:06.955Z,23.67
2023-03-06T06:28:38.757Z,25.60
2023-03-06T06:29:11.824Z,24.87
2023-03-06T06:29:43.544Z,24.23
2023-03-06T06:30:15.397Z,24.23
2023-03-06T06:30:47.188Z,24.03
2023-03-06T06:31:19.027Z,25.23
2023-03-06T06:31:51.554Z,26.63
2023-03-06T06:32:23.387Z,26.13
2023-03-06T06:32:55.591Z,25.57
2023-03-06T06:33:27.520Z,27.13
2023-03-06T06:33:59.416Z,25.90
2023-03-06T06:34:31.988Z,25.80
2023-03-06T06:35:04.402Z,24.60
2023-03-06T06:35:37.416Z,23.90
2023-03-06T06:36:17.103Z,24.40
2023-03-06T06:36:52.210Z,24.43
2023-03-06T06:37:26.068Z,24.60
2023-03-06T06:37:57.851Z,24.40
2023-03-06T06:38:29.937Z,23.97
2023-03-06T06:39:02.037Z,24.83
2023-03-06T06:39:33.940Z,24.13
2023-03-06T06:40:06.323Z,25.07
2023-03-06T06:40:38.058Z,24.83
2023-03-06T06:42:20.155Z,24.67
2023-03-06T06:42:52.588Z,24.33
2023-03-06T06:43:24.344Z,25.73
2023-03-06T06:43:58.680Z,25.30
2023-03-06T06:44:30.703Z,24.60
2023-03-06T06:45:05.283Z,24.73
2023-03-06T06:45:37.189Z,25.30
2023-03-06T06:46:38.873Z,24.73
2023-03-06T06:47:23.471Z,23.77
2023-03-06T06:47:52.605Z,24.03
2023-03-06T06:48:25.016Z,25.13
2023-03-06T06:48:56.832Z,25.47
2023-03-06T06:49:28.586Z,26.20
2023-03-06T06:50:00.325Z,25.00
2023-03-06T06:50:32.141Z,25.43
2023-03-06T06:51:04.604Z,26.03
2023-03-06T06:51:37.508Z,26.23
2023-03-06T06:52:10.579Z,26.63
2023-03-06T06:52:42.364Z,25.13
2023-03-06T06:53:14.091Z,25.13
2023-03-06T06:53:45.938Z,26.77
2023-03-06T06:54:18.864Z,72.13
2023-03-06T06:54:51.106Z,65.53
2023-03-06T06:55:22.867Z,51.80
2023-03-06T06:55:54.825Z,46.97
2023-03-06T06:56:26.883Z,35.97
2023-03-06T06:56:58.810Z,33.67
2023-03-06T06:57:30.603Z,31.43
2023-03-06T06:58:02.356Z,27.43
2023-03-06T06:58:34.228Z,26.27
2023-03-06T06:59:16.157Z,27.03
2023-03-06T06:59:50.644Z,26.03
2023-03-06T07:00:24.430Z,27.33
2023-03-06T07:00:56.234Z,29.47
2023-03-06T07:01:29.387Z,32.07
2023-03-06T07:02:01.423Z,28.30
2023-03-06T07:02:33.381Z,28.27
2023-03-06T07:03:05.144Z,28.40
2023-03-06T07:03:37.489Z,25.50
2023-03-06T07:04:12.528Z,25.90
2023-03-06T07:05:02.054Z,27.37
2023-03-06T07:05:35.128Z,24.90
2023-03-06T07:06:07.270Z,25.33